Medicine Park, Oklahoma
Current Conditions -  °F | °C
As of 7:58 AM on Monday 20 Oct 2014 (Local Time) from KFSI Reporting Station
Overcast Overcast  
Wind Chill: 56°   Ceiling: 8000
Heat Index: 56°   Visibility: 10mi
Dew Point: 55°   Wind: 3mph
Humidity: 97%   Direction: 170°S
Pressure: 30.05"   Gusts: NA
Location:  34.73°N, 98.5°W
Report Text: KFSI 201258Z AUTO 17003KT 10SM OVC080 14/13 A3005 RMK AO2 SLP173 T01350130
Loading
Personal Weather Stations






























Interactive Weather Map
Tropical Storm Tracking
New forecast layout! Learn more

10-Day Weather Forecast

Advertisements
Track Severe Weather on mobile